Hardenberg, Netherlands
Current Conditions -  °F | °C
As of 8:25 AM on Sunday 23 Nov 2014 (Local Time) from EHGG Reporting Station
Clear Clear  
Wind Chill: 44°   Ceiling: Unl
Heat Index: 46°   Visibility: 6mi
Dew Point: 45°   Wind: 5mph
Humidity: 93%   Direction: 180°S
Pressure: 30.03"   Gusts: NA
Location:  52.58°N, 6.62°E
Report Text: EHGG 230725Z AUTO 18004KT 140V240 9000 NSC 08/07 Q1017 NOSIG
Loading
Personal Weather Stations






























Interactive Weather Map New forecast layout! Learn more

10-Day Weather Forecast

Advertisements
Track Severe Weather on mobile